createdAt,value
2017-02-24T00:00:52.708Z,984.19
2017-02-24T00:05:48.927Z,984.49
2017-02-24T00:10:45.047Z,984.92
2017-02-24T00:15:42.108Z,985.66
2017-02-24T00:20:38.254Z,986.24
2017-02-24T00:25:34.534Z,986.82
2017-02-24T00:30:30.480Z,987.39
2017-02-24T00:35:27.524Z,987.84
2017-02-24T00:40:23.743Z,988.54
2017-02-24T00:45:20.127Z,988.71
2017-02-24T00:50:16.376Z,989.09
2017-02-24T00:55:12.716Z,989.22
2017-02-24T01:00:09.185Z,989.74
2017-02-24T01:05:05.300Z,989.93
2017-02-24T01:10:01.761Z,990.22
2017-02-24T01:14:58.092Z,990.65
2017-02-24T01:19:54.558Z,990.83
2017-02-24T01:24:50.771Z,991.19
2017-02-24T01:29:47.011Z,991.51
2017-02-24T01:34:43.481Z,991.76
2017-02-24T01:39:40.036Z,992.09
2017-02-24T01:44:36.307Z,992.15
2017-02-24T01:49:32.597Z,992.51
2017-02-24T01:54:28.939Z,992.58
2017-02-24T01:59:25.260Z,992.68
2017-02-24T02:04:21.395Z,992.92
2017-02-24T02:09:17.938Z,992.97
2017-02-24T02:14:14.327Z,993.28
2017-02-24T02:19:10.754Z,993.50
2017-02-24T02:24:07.889Z,993.68
2017-02-24T02:29:04.414Z,993.77
2017-02-24T02:34:00.747Z,994.08
2017-02-24T02:38:57.206Z,994.13
2017-02-24T02:43:53.203Z,994.32
2017-02-24T02:48:49.470Z,994.58
2017-02-24T02:53:45.826Z,994.46
2017-02-24T02:58:42.075Z,994.50
2017-02-24T03:03:38.372Z,994.79
2017-02-24T03:08:35.750Z,994.94
2017-02-24T03:13:32.068Z,994.89
2017-02-24T03:18:28.722Z,995.02
2017-02-24T03:23:25.825Z,995.17
2017-02-24T03:28:22.098Z,995.20
2017-02-24T03:33:18.410Z,995.42
2017-02-24T03:38:14.719Z,995.40
2017-02-24T03:43:10.989Z,995.59
2017-02-24T03:48:07.896Z,995.69
2017-02-24T03:53:04.339Z,995.74
2017-02-24T03:58:01.641Z,995.90
2017-02-24T04:02:57.629Z,996.13
2017-02-24T04:07:53.941Z,996.19
2017-02-24T04:12:50.563Z,996.42
2017-02-24T04:17:46.915Z,996.49
2017-02-24T04:22:43.256Z,996.52
2017-02-24T04:27:39.777Z,996.74
2017-02-24T04:32:35.890Z,996.77
2017-02-24T04:37:32.174Z,996.94
2017-02-24T04:42:28.494Z,996.98
2017-02-24T04:47:24.929Z,997.06
2017-02-24T04:52:22.297Z,997.13
2017-02-24T04:57:18.656Z,997.19
2017-02-24T05:02:15.011Z,997.37
2017-02-24T05:07:11.402Z,997.42
2017-02-24T05:12:07.633Z,997.74
2017-02-24T05:17:04.175Z,997.79
2017-02-24T05:22:00.591Z,997.90
2017-02-24T05:26:56.813Z,998.02
2017-02-24T05:31:53.406Z,998.04
2017-02-24T05:36:50.772Z,998.16
2017-02-24T05:41:46.493Z,998.30
2017-02-24T05:46:42.716Z,998.30
2017-02-24T05:51:39.010Z,998.45
2017-02-24T05:56:35.244Z,998.63
2017-02-24T06:01:31.592Z,998.76
2017-02-24T06:06:28.149Z,998.94
2017-02-24T06:11:24.482Z,999.02
2017-02-24T06:16:21.248Z,999.27
2017-02-24T06:21:17.385Z,999.37
2017-02-24T06:26:13.802Z,999.46
2017-02-24T06:31:10.784Z,999.65
2017-02-24T06:36:07.020Z,999.74
2017-02-24T06:41:03.458Z,999.90
2017-02-24T06:45:59.924Z,1000.00
2017-02-24T06:50:56.360Z,1000.06
2017-02-24T06:55:53.057Z,1000.26
2017-02-24T07:00:49.554Z,1000.30
2017-02-24T07:05:47.356Z,1000.35
2017-02-24T07:10:43.260Z,1000.53
2017-02-24T07:15:39.773Z,1000.75
2017-02-24T07:20:36.248Z,1000.90
2017-02-24T07:25:32.899Z,1001.03
2017-02-24T07:30:29.551Z,1001.20
2017-02-24T07:35:25.940Z,1001.35
2017-02-24T07:40:22.445Z,1001.52
2017-02-24T07:45:18.921Z,1001.52
2017-02-24T07:50:15.674Z,1001.67
2017-02-24T07:55:12.215Z,1001.81
2017-02-24T08:00:09.632Z,1002.17
2017-02-24T08:05:06.201Z,1002.19
2017-02-24T08:10:03.779Z,1002.24
2017-02-24T08:15:00.404Z,1002.41
2017-02-24T08:19:57.346Z,1002.50
2017-02-24T08:24:54.048Z,1002.61
2017-02-24T08:29:50.989Z,1002.70
2017-02-24T08:34:47.956Z,1002.97
2017-02-24T08:39:44.208Z,1003.04
2017-02-24T08:44:41.086Z,1003.13
2017-02-24T08:49:37.911Z,1003.24
2017-02-24T08:54:38.192Z,1003.29
2017-02-24T08:59:38.305Z,1003.32
2017-02-24T09:04:34.217Z,1003.44
2017-02-24T09:09:30.870Z,1003.59
2017-02-24T09:14:27.767Z,1003.63
2017-02-24T09:24:25.438Z,1003.89
2017-02-24T09:29:21.886Z,1003.88
2017-02-24T09:34:18.199Z,1004.02
2017-02-24T09:39:14.480Z,1004.23
2017-02-24T09:44:12.004Z,1004.27
2017-02-24T09:49:08.704Z,1004.36
2017-02-24T09:54:05.359Z,1004.47
2017-02-24T09:59:03.055Z,1004.65
2017-02-24T10:04:01.165Z,1004.63
2017-02-24T10:08:57.468Z,1004.66
2017-02-24T10:13:54.786Z,1004.84
2017-02-24T10:18:51.710Z,1004.85
2017-02-24T10:23:49.049Z,1004.86
2017-02-24T10:28:46.953Z,1005.01
2017-02-24T10:33:44.072Z,1005.05
2017-02-24T10:38:40.891Z,1005.10
2017-02-24T10:43:38.130Z,1005.18
2017-02-24T10:48:34.494Z,1005.23
2017-02-24T10:53:31.584Z,1005.30
2017-02-24T10:58:27.628Z,1005.40
2017-02-24T11:03:25.369Z,1005.45
2017-02-24T11:08:21.998Z,1005.57
2017-02-24T11:13:18.293Z,1005.50
2017-02-24T11:18:15.140Z,1005.56
2017-02-24T11:23:12.053Z,1005.58
2017-02-24T11:28:09.480Z,1005.60
2017-02-24T11:33:08.436Z,1005.64
2017-02-24T11:38:05.569Z,1005.68
2017-02-24T11:43:01.490Z,1005.87
2017-02-24T11:47:59.431Z,1005.79
2017-02-24T11:52:56.513Z,1005.87
2017-02-24T11:57:53.603Z,1005.82
2017-02-24T12:02:50.916Z,1005.96
2017-02-24T12:07:47.210Z,1006.01
2017-02-24T12:12:43.332Z,1006.11
2017-02-24T12:17:43.303Z,1006.16
2017-02-24T12:22:39.808Z,1006.13
2017-02-24T12:27:36.231Z,1006.10
2017-02-24T12:32:32.909Z,1006.08
2017-02-24T12:37:29.695Z,1006.29
2017-02-24T12:42:26.619Z,1006.29
2017-02-24T12:47:23.184Z,1006.32
2017-02-24T12:52:20.140Z,1006.33
2017-02-24T12:57:17.004Z,1006.30
2017-02-24T13:02:14.947Z,1006.34
2017-02-24T13:07:12.074Z,1006.34
2017-02-24T13:12:09.721Z,1006.48
2017-02-24T13:17:06.382Z,1006.35
2017-02-24T13:22:03.492Z,1006.34
2017-02-24T13:27:00.099Z,1006.46
2017-02-24T13:31:56.240Z,1006.33
2017-02-24T13:36:51.921Z,1006.47
2017-02-24T13:41:48.452Z,1006.51
2017-02-24T13:46:45.000Z,1006.53
2017-02-24T13:51:41.994Z,1006.51
2017-02-24T14:01:43.535Z,1006.52
2017-02-24T14:06:40.575Z,1006.57
2017-02-24T14:11:38.508Z,1006.46
2017-02-24T14:16:35.425Z,1006.51
2017-02-24T14:21:32.020Z,1006.63
2017-02-24T14:26:28.451Z,1006.70
2017-02-24T14:31:26.212Z,1006.78
2017-02-24T14:36:23.241Z,1006.74
2017-02-24T14:41:19.564Z,1006.67
2017-02-24T14:46:16.881Z,1006.75
2017-02-24T14:51:16.619Z,1006.81
2017-02-24T14:56:12.909Z,1006.92
2017-02-24T15:01:10.000Z,1006.99
2017-02-24T15:06:07.755Z,1007.06
2017-02-24T15:11:07.559Z,1007.14
2017-02-24T15:16:04.758Z,1007.30
2017-02-24T15:21:02.083Z,1007.48
2017-02-24T15:25:58.622Z,1007.41
2017-02-24T15:30:58.342Z,1007.59
2017-02-24T15:35:54.122Z,1007.64
2017-02-24T15:40:50.399Z,1007.71
2017-02-24T15:45:47.557Z,1007.85
2017-02-24T15:50:43.656Z,1007.90
2017-02-24T15:55:41.338Z,1007.95
2017-02-24T16:00:40.830Z,1008.05
2017-02-24T16:05:38.380Z,1008.17
2017-02-24T16:10:38.147Z,1008.21
2017-02-24T16:15:35.211Z,1008.50
2017-02-24T16:20:31.751Z,1008.50
2017-02-24T16:25:28.117Z,1008.57
2017-02-24T16:30:26.596Z,1008.62
2017-02-24T16:35:25.678Z,1008.64
2017-02-24T16:40:21.409Z,1008.76
2017-02-24T16:45:19.686Z,1008.87
2017-02-24T16:50:17.547Z,1009.04
2017-02-24T16:55:14.257Z,1009.14
2017-02-24T17:00:12.277Z,1009.19
2017-02-24T17:05:08.920Z,1009.23
2017-02-24T17:10:05.439Z,1009.31
2017-02-24T17:15:02.003Z,1009.47
2017-02-24T17:19:58.399Z,1009.48
2017-02-24T17:24:54.700Z,1009.58
2017-02-24T17:29:51.047Z,1009.73
2017-02-24T17:34:48.700Z,1009.79
2017-02-24T17:39:44.839Z,1009.86
2017-02-24T17:44:41.289Z,1009.93
2017-02-24T17:49:38.578Z,1010.05
2017-02-24T17:54:35.795Z,1010.08
2017-02-24T17:59:32.340Z,1010.25
2017-02-24T18:04:29.018Z,1010.41
2017-02-24T18:09:25.402Z,1010.55
2017-02-24T18:14:22.061Z,1010.80
2017-02-24T18:19:19.258Z,1010.77
2017-02-24T18:24:15.515Z,1010.96
2017-02-24T18:29:12.380Z,1010.92
2017-02-24T18:34:08.739Z,1011.03
2017-02-24T18:39:04.997Z,1011.09
2017-02-24T18:44:01.500Z,1011.18
2017-02-24T18:48:58.459Z,1011.21
2017-02-24T18:53:54.758Z,1011.36
2017-02-24T18:58:52.257Z,1011.33
2017-02-24T19:03:48.581Z,1011.34
2017-02-24T19:08:44.817Z,1011.38
2017-02-24T19:13:41.236Z,1011.38
2017-02-24T19:18:37.481Z,1011.50
2017-02-24T19:23:33.556Z,1011.49
2017-02-24T19:28:30.337Z,1011.51
2017-02-24T19:33:26.700Z,1011.42
2017-02-24T19:38:22.897Z,1011.44
2017-02-24T19:43:19.698Z,1011.46
2017-02-24T19:48:16.413Z,1011.53
2017-02-24T19:53:12.858Z,1011.63
2017-02-24T19:58:09.399Z,1011.65
2017-02-24T20:03:05.835Z,1011.68
2017-02-24T20:08:02.163Z,1011.56
2017-02-24T20:12:58.963Z,1011.71
2017-02-24T20:17:55.385Z,1011.67
2017-02-24T20:22:51.895Z,1011.75
2017-02-24T20:27:48.498Z,1011.73
2017-02-24T20:32:45.437Z,1011.78
2017-02-24T20:37:41.743Z,1011.95
2017-02-24T20:42:38.017Z,1011.90
2017-02-24T20:47:34.418Z,1012.01
2017-02-24T20:52:31.997Z,1012.01
2017-02-24T20:57:28.156Z,1011.98
2017-02-24T21:02:25.701Z,1011.96
2017-02-24T21:07:22.534Z,1012.05
2017-02-24T21:12:19.154Z,1012.08
2017-02-24T21:17:16.673Z,1012.11
2017-02-24T21:22:12.576Z,1012.29
2017-02-24T21:27:08.976Z,1012.29
2017-02-24T21:32:05.515Z,1012.36
2017-02-24T21:37:02.555Z,1012.35
2017-02-24T21:41:59.016Z,1012.46
2017-02-24T21:46:55.474Z,1012.47
2017-02-24T21:51:51.975Z,1012.60
2017-02-24T21:56:48.174Z,1012.67
2017-02-24T22:01:45.314Z,1012.68
2017-02-24T22:06:41.468Z,1012.74
2017-02-24T22:11:38.876Z,1012.77
2017-02-24T22:16:35.151Z,1012.80
2017-02-24T22:21:31.768Z,1012.75
2017-02-24T22:26:28.235Z,1012.87
2017-02-24T22:31:24.372Z,1012.68
2017-02-24T22:36:20.771Z,1012.75
2017-02-24T22:41:17.552Z,1012.84
2017-02-24T22:46:14.261Z,1012.69
2017-02-24T22:51:10.571Z,1012.74
2017-02-24T22:56:06.852Z,1012.66
2017-02-24T23:01:03.003Z,1012.89
2017-02-24T23:06:00.330Z,1012.79
2017-02-24T23:10:56.450Z,1012.75
2017-02-24T23:15:52.872Z,1012.84
2017-02-24T23:20:49.054Z,1012.92
2017-02-24T23:25:45.342Z,1012.93
2017-02-24T23:30:41.864Z,1012.92
2017-02-24T23:35:37.939Z,1012.98
2017-02-24T23:40:34.861Z,1013.06
2017-02-24T23:45:31.368Z,1013.08
2017-02-24T23:50:27.707Z,1013.27
2017-02-24T23:55:24.118Z,1013.11
